sensor_id;sensor_type;location;lat;lon;timestamp;pressure;altitude;pressure_sealevel;temperature;humidity
14041;BME280;7095;51.388;6.196;2023-08-08T00:00:37;85798.66;;;-145.32;100.00
14041;BME280;7095;51.388;6.196;2023-08-08T00:03:05;86055.56;;;-145.32;100.00
14041;BME280;7095;51.388;6.196;2023-08-08T00:05:34;86312.47;;;-145.32;100.00
14041;BME280;7095;51.388;6.196;2023-08-08T00:08:02;85541.78;;;-145.32;100.00
14041;BME280;7095;51.388;6.196;2023-08-08T00:10:31;86055.56;;;-145.32;100.00
14041;BME280;7095;51.388;6.196;2023-08-08T00:12:59;86569.41;;;-145.32;100.00
14041;BME280;7095;51.388;6.196;2023-08-08T00:15:28;86312.47;;;-145.32;100.00
14041;BME280;7095;51.388;6.196;2023-08-08T00:17:58;86826.34;;;-145.32;100.00
14041;BME280;7095;51.388;6.196;2023-08-08T00:20:26;87083.34;;;-145.32;100.00
14041;BME280;7095;51.388;6.196;2023-08-08T00:22:55;87597.34;;;-145.32;100.00
14041;BME280;7095;51.388;6.196;2023-08-08T00:25:23;86826.34;;;-145.32;100.00
14041;BME280;7095;51.388;6.196;2023-08-08T00:27:51;87083.34;;;-145.32;100.00
14041;BME280;7095;51.388;6.196;2023-08-08T00:30:20;87083.34;;;-145.32;100.00
14041;BME280;7095;51.388;6.196;2023-08-08T00:32:48;87083.34;;;-145.32;100.00
14041;BME280;7095;51.388;6.196;2023-08-08T00:35:18;86569.41;;;-145.32;100.00
14041;BME280;7095;51.388;6.196;2023-08-08T00:37:46;86569.41;;;-145.32;100.00
14041;BME280;7095;51.388;6.196;2023-08-08T00:40:15;86055.56;;;-145.32;100.00
14041;BME280;7095;51.388;6.196;2023-08-08T00:42:43;85541.78;;;-145.32;100.00
14041;BME280;7095;51.388;6.196;2023-08-08T00:45:12;85284.91;;;-145.32;100.00
14041;BME280;7095;51.388;6.196;2023-08-08T00:47:40;85028.06;;;-145.32;100.00
14041;BME280;7095;51.388;6.196;2023-08-08T00:50:10;85284.91;;;-145.32;100.00
14041;BME280;7095;51.388;6.196;2023-08-08T00:52:41;85284.91;;;-145.32;100.00
14041;BME280;7095;51.388;6.196;2023-08-08T00:55:11;85798.66;;;-145.32;100.00
14041;BME280;7095;51.388;6.196;2023-08-08T00:57:41;86055.56;;;-145.32;100.00
14041;BME280;7095;51.388;6.196;2023-08-08T01:00:10;86569.41;;;-145.32;100.00
14041;BME280;7095;51.388;6.196;2023-08-08T01:02:39;86826.34;;;-145.32;100.00
14041;BME280;7095;51.388;6.196;2023-08-08T01:05:08;87340.31;;;-145.32;100.00
14041;BME280;7095;51.388;6.196;2023-08-08T01:07:43;87083.34;;;-145.32;100.00
14041;BME280;7095;51.388;6.196;2023-08-08T01:10:15;86826.34;;;-145.32;100.00
14041;BME280;7095;51.388;6.196;2023-08-08T01:12:49;86055.56;;;-145.32;100.00
14041;BME280;7095;51.388;6.196;2023-08-08T01:15:19;85284.91;;;-145.32;100.00
14041;BME280;7095;51.388;6.196;2023-08-08T01:17:49;85798.66;;;-145.32;100.00
14041;BME280;7095;51.388;6.196;2023-08-08T01:20:19;85798.66;;;-145.32;100.00
14041;BME280;7095;51.388;6.196;2023-08-08T01:25:41;85284.91;;;-145.32;100.00
14041;BME280;7095;51.388;6.196;2023-08-08T01:28:10;85028.06;;;-145.32;100.00
14041;BME280;7095;51.388;6.196;2023-08-08T01:30:39;85028.06;;;-145.32;100.00
14041;BME280;7095;51.388;6.196;2023-08-08T01:33:07;84514.44;;;-145.32;100.00
14041;BME280;7095;51.388;6.196;2023-08-08T01:35:37;83744.16;;;-145.32;100.00
14041;BME280;7095;51.388;6.196;2023-08-08T01:38:12;83487.44;;;-145.32;100.00
14041;BME280;7095;51.388;6.196;2023-08-08T01:40:44;83744.16;;;-145.32;100.00
14041;BME280;7095;51.388;6.196;2023-08-08T01:43:15;84000.91;;;-145.32;100.00
14041;BME280;7095;51.388;6.196;2023-08-08T01:45:44;84000.91;;;-145.32;100.00
14041;BME280;7095;51.388;6.196;2023-08-08T01:48:13;84000.91;;;-145.32;100.00
14041;BME280;7095;51.388;6.196;2023-08-08T01:50:41;84257.66;;;-145.32;100.00
14041;BME280;7095;51.388;6.196;2023-08-08T01:53:10;84257.66;;;-145.32;100.00
14041;BME280;7095;51.388;6.196;2023-08-08T01:55:38;84257.66;;;-145.32;100.00
14041;BME280;7095;51.388;6.196;2023-08-08T01:58:08;84514.44;;;-145.32;100.00
14041;BME280;7095;51.388;6.196;2023-08-08T02:00:36;84257.66;;;-145.32;100.00
14041;BME280;7095;51.388;6.196;2023-08-08T02:03:05;84000.91;;;-145.32;100.00
14041;BME280;7095;51.388;6.196;2023-08-08T02:05:33;83487.44;;;-145.32;100.00
14041;BME280;7095;51.388;6.196;2023-08-08T02:08:02;84000.91;;;-145.32;100.00
14041;BME280;7095;51.388;6.196;2023-08-08T02:10:31;84514.44;;;-145.32;100.00
14041;BME280;7095;51.388;6.196;2023-08-08T02:12:59;85284.91;;;-145.32;100.00
14041;BME280;7095;51.388;6.196;2023-08-08T02:15:29;86312.47;;;-145.32;100.00
14041;BME280;7095;51.388;6.196;2023-08-08T02:17:59;85541.78;;;-145.32;100.00
14041;BME280;7095;51.388;6.196;2023-08-08T02:20:28;85798.66;;;-145.32;100.00
14041;BME280;7095;51.388;6.196;2023-08-08T02:22:56;85798.66;;;-145.32;100.00
14041;BME280;7095;51.388;6.196;2023-08-08T02:25:25;85798.66;;;-145.32;100.00
14041;BME280;7095;51.388;6.196;2023-08-08T02:27:53;85798.66;;;-145.32;100.00
14041;BME280;7095;51.388;6.196;2023-08-08T02:30:22;86312.47;;;-145.32;100.00
14041;BME280;7095;51.388;6.196;2023-08-08T02:32:52;86569.41;;;-145.32;100.00
14041;BME280;7095;51.388;6.196;2023-08-08T02:35:20;86826.34;;;-145.32;100.00
14041;BME280;7095;51.388;6.196;2023-08-08T02:37:49;87340.31;;;-145.32;100.00
14041;BME280;7095;51.388;6.196;2023-08-08T02:40:17;87340.31;;;-145.32;100.00
14041;BME280;7095;51.388;6.196;2023-08-08T02:42:46;88111.41;;;-145.32;100.00
14041;BME280;7095;51.388;6.196;2023-08-08T02:45:15;88111.41;;;-145.32;100.00
14041;BME280;7095;51.388;6.196;2023-08-08T02:47:43;88625.56;;;-145.32;100.00
14041;BME280;7095;51.388;6.196;2023-08-08T02:50:14;88882.69;;;-145.32;100.00
14041;BME280;7095;51.388;6.196;2023-08-08T02:52:43;88625.56;;;-145.32;100.00
14041;BME280;7095;51.388;6.196;2023-08-08T02:55:12;89396.97;;;-145.32;100.00
14041;BME280;7095;51.388;6.196;2023-08-08T02:57:42;89396.97;;;-145.32;100.00
14041;BME280;7095;51.388;6.196;2023-08-08T03:00:11;89654.13;;;-145.32;100.00
14041;BME280;7095;51.388;6.196;2023-08-08T03:02:43;89911.31;;;-145.32;100.00
14041;BME280;7095;51.388;6.196;2023-08-08T03:05:12;90425.72;;;-145.32;100.00
14041;BME280;7095;51.388;6.196;2023-08-08T03:07:42;90425.72;;;-145.32;100.00
14041;BME280;7095;51.388;6.196;2023-08-08T03:10:12;90682.97;;;-145.32;100.00
14041;BME280;7095;51.388;6.196;2023-08-08T03:12:42;90425.72;;;-145.32;100.00
14041;BME280;7095;51.388;6.196;2023-08-08T03:15:11;90682.97;;;-145.32;100.00
14041;BME280;7095;51.388;6.196;2023-08-08T03:17:40;91197.50;;;-145.32;100.00
14041;BME280;7095;51.388;6.196;2023-08-08T03:20:10;91969.47;;;-145.32;100.00
14041;BME280;7095;51.388;6.196;2023-08-08T03:22:39;92226.81;;;-145.32;100.00
14041;BME280;7095;51.388;6.196;2023-08-08T03:25:09;93513.91;;;-145.32;100.00
14041;BME280;7095;51.388;6.196;2023-08-08T03:27:38;94286.38;;;-145.32;100.00
14041;BME280;7095;51.388;6.196;2023-08-08T03:30:09;95059.00;;;-145.32;100.00
14041;BME280;7095;51.388;6.196;2023-08-08T03:32:41;95831.81;;;-145.32;100.00
14041;BME280;7095;51.388;6.196;2023-08-08T03:35:09;96862.50;;;-145.32;100.00
14041;BME280;7095;51.388;6.196;2023-08-08T03:37:40;97377.97;;;-145.32;100.00
14041;BME280;7095;51.388;6.196;2023-08-08T03:40:11;97635.72;;;-145.32;100.00
14041;BME280;7095;51.388;6.196;2023-08-08T03:42:41;98151.31;;;-145.32;100.00
14041;BME280;7095;51.388;6.196;2023-08-08T03:45:10;98409.13;;;-145.32;100.00
14041;BME280;7095;51.388;6.196;2023-08-08T03:47:38;98924.81;;;-145.32;100.00
14041;BME280;7095;51.388;6.196;2023-08-08T03:50:08;99440.56;;;-145.32;100.00
14041;BME280;7095;51.388;6.196;2023-08-08T03:52:37;99956.41;;;-145.32;100.00
14041;BME280;7095;51.388;6.196;2023-08-08T03:55:11;99956.41;;;-145.32;100.00
14041;BME280;7095;51.388;6.196;2023-08-08T03:57:40;100214.34;;;-145.32;100.00
14041;BME280;7095;51.388;6.196;2023-08-08T04:00:09;100730.31;;;-145.32;100.00
14041;BME280;7095;51.388;6.196;2023-08-08T04:02:41;100988.31;;;-145.32;100.00
14041;BME280;7095;51.388;6.196;2023-08-08T04:05:10;101246.34;;;-145.32;100.00
14041;BME280;7095;51.388;6.196;2023-08-08T04:07:39;101504.38;;;-145.32;100.00
14041;BME280;7095;51.388;6.196;2023-08-08T04:10:08;102020.53;;;-145.32;100.00
14041;BME280;7095;51.388;6.196;2023-08-08T04:12:38;102020.53;;;-145.32;100.00
14041;BME280;7095;51.388;6.196;2023-08-08T04:15:07;102536.75;;;-145.32;100.00
14041;BME280;7095;51.388;6.196;2023-08-08T04:17:36;102794.91;;;-145.32;100.00
14041;BME280;7095;51.388;6.196;2023-08-08T04:20:06;103053.06;;;-145.32;100.00
14041;BME280;7095;51.388;6.196;2023-08-08T04:22:34;103053.06;;;-145.32;100.00
14041;BME280;7095;51.388;6.196;2023-08-08T04:25:04;103311.25;;;-145.32;100.00
14041;BME280;7095;51.388;6.196;2023-08-08T04:27:33;103569.44;;;-145.32;100.00
14041;BME280;7095;51.388;6.196;2023-08-08T04:30:03;103569.44;;;-145.32;100.00
14041;BME280;7095;51.388;6.196;2023-08-08T04:32:32;103569.44;;;-145.32;100.00
14041;BME280;7095;51.388;6.196;2023-08-08T04:35:00;103569.44;;;-145.32;100.00
14041;BME280;7095;51.388;6.196;2023-08-08T04:37:29;103827.66;;;-145.32;100.00
14041;BME280;7095;51.388;6.196;2023-08-08T04:39:57;104085.91;;;-145.32;100.00
14041;BME280;7095;51.388;6.196;2023-08-08T04:42:26;104602.44;;;-145.32;100.00
14041;BME280;7095;51.388;6.196;2023-08-08T04:44:54;104860.72;;;-145.32;100.00
14041;BME280;7095;51.388;6.196;2023-08-08T04:47:24;105119.03;;;-145.32;100.00
14041;BME280;7095;51.388;6.196;2023-08-08T04:49:52;105377.34;;;-145.32;100.00
14041;BME280;7095;51.388;6.196;2023-08-08T04:52:21;105635.72;;;-145.32;100.00
14041;BME280;7095;51.388;6.196;2023-08-08T04:54:49;106152.47;;;-145.32;100.00
14041;BME280;7095;51.388;6.196;2023-08-08T04:57:17;106152.47;;;-145.32;100.00
14041;BME280;7095;51.388;6.196;2023-08-08T04:59:46;106152.47;;;-145.32;100.00
14041;BME280;7095;51.388;6.196;2023-08-08T05:02:14;106152.47;;;-145.32;100.00
14041;BME280;7095;51.388;6.196;2023-08-08T05:04:44;106410.88;;;-145.32;100.00
14041;BME280;7095;51.388;6.196;2023-08-08T05:07:13;106410.88;;;-145.32;100.00
14041;BME280;7095;51.388;6.196;2023-08-08T05:09:41;106152.47;;;-145.32;100.00
14041;BME280;7095;51.388;6.196;2023-08-08T05:12:10;106152.47;;;-145.32;100.00
14041;BME280;7095;51.388;6.196;2023-08-08T05:14:39;106410.88;;;-145.32;100.00
14041;BME280;7095;51.388;6.196;2023-08-08T05:17:07;106410.88;;;-145.32;100.00
14041;BME280;7095;51.388;6.196;2023-08-08T05:19:35;106410.88;;;-145.32;100.00
14041;BME280;7095;51.388;6.196;2023-08-08T05:22:05;106669.31;;;-145.32;100.00
14041;BME280;7095;51.388;6.196;2023-08-08T05:24:34;106669.31;;;-145.32;100.00
14041;BME280;7095;51.388;6.196;2023-08-08T05:27:03;106410.88;;;-145.32;100.00
14041;BME280;7095;51.388;6.196;2023-08-08T05:29:32;106669.31;;;-145.32;100.00
14041;BME280;7095;51.388;6.196;2023-08-08T05:32:01;106669.31;;;-145.32;100.00
14041;BME280;7095;51.388;6.196;2023-08-08T05:34:31;106669.31;;;-145.32;100.00
14041;BME280;7095;51.388;6.196;2023-08-08T05:36:59;106152.47;;;-145.32;100.00
14041;BME280;7095;51.388;6.196;2023-08-08T05:39:44;106152.47;;;-145.32;100.00
14041;BME280;7095;51.388;6.196;2023-08-08T05:42:13;106152.47;;;-145.32;100.00
14041;BME280;7095;51.388;6.196;2023-08-08T05:44:41;106152.47;;;-145.32;100.00
14041;BME280;7095;51.388;6.196;2023-08-08T05:47:10;105635.72;;;-145.32;100.00
14041;BME280;7095;51.388;6.196;2023-08-08T05:49:44;105635.72;;;-145.32;100.00
14041;BME280;7095;51.388;6.196;2023-08-08T05:52:13;105635.72;;;-145.32;100.00
14041;BME280;7095;51.388;6.196;2023-08-08T05:54:42;104860.72;;;-145.32;100.00
14041;BME280;7095;51.388;6.196;2023-08-08T05:57:12;105119.03;;;-145.32;100.00
14041;BME280;7095;51.388;6.196;2023-08-08T05:59:40;104602.44;;;-145.32;100.00
14041;BME280;7095;51.388;6.196;2023-08-08T06:02:11;104344.16;;;-145.32;100.00
14041;BME280;7095;51.388;6.196;2023-08-08T06:04:40;103827.66;;;-145.32;100.00
14041;BME280;7095;51.388;6.196;2023-08-08T06:07:08;103569.44;;;-145.32;100.00
14041;BME280;7095;51.388;6.196;2023-08-08T06:09:37;103827.66;;;-145.32;100.00
14041;BME280;7095;51.388;6.196;2023-08-08T06:12:06;103311.25;;;-145.32;100.00
14041;BME280;7095;51.388;6.196;2023-08-08T06:14:36;102794.91;;;-145.32;100.00
14041;BME280;7095;51.388;6.196;2023-08-08T06:17:04;102794.91;;;-145.32;100.00
14041;BME280;7095;51.388;6.196;2023-08-08T06:19:33;102278.66;;;-145.32;100.00
14041;BME280;7095;51.388;6.196;2023-08-08T06:22:02;101504.38;;;-145.32;100.00
14041;BME280;7095;51.388;6.196;2023-08-08T06:24:31;101246.34;;;-145.32;100.00
14041;BME280;7095;51.388;6.196;2023-08-08T06:27:00;100988.31;;;-145.32;100.00
14041;BME280;7095;51.388;6.196;2023-08-08T06:29:29;100472.31;;;-145.32;100.00
14041;BME280;7095;51.388;6.196;2023-08-08T06:32:00;100730.31;;;-145.32;100.00
14041;BME280;7095;51.388;6.196;2023-08-08T06:34:28;100214.34;;;-145.32;100.00
14041;BME280;7095;51.388;6.196;2023-08-08T06:36:57;99698.47;;;-145.32;100.00
14041;BME280;7095;51.388;6.196;2023-08-08T06:39:26;98924.81;;;-145.32;100.00
14041;BME280;7095;51.388;6.196;2023-08-08T06:41:55;98151.31;;;-145.32;100.00
14041;BME280;7095;51.388;6.196;2023-08-08T06:44:41;98151.31;;;-145.32;100.00
14041;BME280;7095;51.388;6.196;2023-08-08T06:47:11;97120.22;;;-145.32;100.00
14041;BME280;7095;51.388;6.196;2023-08-08T06:49:40;95831.81;;;-145.32;100.00
14041;BME280;7095;51.388;6.196;2023-08-08T06:52:08;95831.81;;;-145.32;100.00
14041;BME280;7095;51.388;6.196;2023-08-08T06:54:37;93771.38;;;-145.32;100.00
14041;BME280;7095;51.388;6.196;2023-08-08T06:57:05;94028.84;;;-145.32;100.00
14041;BME280;7095;51.388;6.196;2023-08-08T06:59:34;90168.50;;;-145.32;100.00
14041;BME280;7095;51.388;6.196;2023-08-08T07:02:03;90940.22;;;-145.32;100.00
14041;BME280;7095;51.388;6.196;2023-08-08T07:04:34;90425.72;;;-145.32;100.00
14041;BME280;7095;51.388;6.196;2023-08-08T07:07:03;90168.50;;;-145.32;100.00
14041;BME280;7095;51.388;6.196;2023-08-08T07:09:32;88882.69;;;-145.32;100.00
14041;BME280;7095;51.388;6.196;2023-08-08T07:12:02;88368.50;;;-145.32;100.00
14041;BME280;7095;51.388;6.196;2023-08-08T07:14:31;88368.50;;;-145.32;100.00
14041;BME280;7095;51.388;6.196;2023-08-08T07:16:59;86055.56;;;-145.32;100.00
14041;BME280;7095;51.388;6.196;2023-08-08T07:19:29;85028.06;;;-145.32;100.00
14041;BME280;7095;51.388;6.196;2023-08-08T07:21:59;86055.56;;;-145.32;100.00
14041;BME280;7095;51.388;6.196;2023-08-08T07:24:28;85284.91;;;-145.32;100.00
14041;BME280;7095;51.388;6.196;2023-08-08T07:26:58;85028.06;;;-145.32;100.00
14041;BME280;7095;51.388;6.196;2023-08-08T07:29:27;82204.09;;;-145.32;100.00
14041;BME280;7095;51.388;6.196;2023-08-08T07:31:57;81947.50;;;-145.32;100.00
14041;BME280;7095;51.388;6.196;2023-08-08T07:34:26;81434.31;;;-145.32;100.00
14041;BME280;7095;51.388;6.196;2023-08-08T07:36:54;79895.28;;;-145.32;100.00
14041;BME280;7095;51.388;6.196;2023-08-08T07:39:24;80921.25;;;-145.32;100.00
14041;BME280;7095;51.388;6.196;2023-08-08T07:41:53;79895.28;;;-145.32;100.00
14041;BME280;7095;51.388;6.196;2023-08-08T07:44:22;78869.66;;;-145.32;100.00
14041;BME280;7095;51.388;6.196;2023-08-08T07:46:50;80664.72;;;-145.32;100.00
14041;BME280;7095;51.388;6.196;2023-08-08T07:49:19;79895.28;;;-145.32;100.00
14041;BME280;7095;51.388;6.196;2023-08-08T07:51:47;79895.28;;;-145.32;100.00
14041;BME280;7095;51.388;6.196;2023-08-08T07:54:15;78613.28;;;-145.32;100.00
14041;BME280;7095;51.388;6.196;2023-08-08T07:56:46;76563.09;;;-145.32;100.00
14041;BME280;7095;51.388;6.196;2023-08-08T07:59:14;76306.91;;;-145.32;100.00
14041;BME280;7095;51.388;6.196;2023-08-08T08:01:43;77075.53;;;-145.32;100.00
14041;BME280;7095;51.388;6.196;2023-08-08T08:04:11;75026.22;;;-145.32;100.00
14041;BME280;7095;51.388;6.196;2023-08-08T08:06:40;74514.09;;;-145.32;100.00
14041;BME280;7095;51.388;6.196;2023-08-08T08:09:11;74514.09;;;-145.32;100.00
14041;BME280;7095;51.388;6.196;2023-08-08T08:11:40;68650.06;;;-145.32;100.00
14041;BME280;7095;51.388;6.196;2023-08-08T08:14:14;69892.38;;;-145.32;100.00
14041;BME280;7095;51.388;6.196;2023-08-08T08:16:42;67124.75;;;-145.32;100.00
14041;BME280;7095;51.388;6.196;2023-08-08T08:19:11;66188.72;;;-145.32;100.00
14041;BME280;7095;51.388;6.196;2023-08-08T08:21:39;64383.28;;;-145.32;100.00
14041;BME280;7095;51.388;6.196;2023-08-08T08:24:08;63617.50;;;-145.32;100.00
14041;BME280;7095;51.388;6.196;2023-08-08T08:26:36;62762.19;;;-145.32;100.00
14041;BME280;7095;51.388;6.196;2023-08-08T08:29:05;61753.63;;;-145.32;100.00
14041;BME280;7095;51.388;6.196;2023-08-08T08:31:35;60966.53;;;-145.32;100.00
14041;BME280;7095;51.388;6.196;2023-08-08T08:34:05;60281.19;;;-145.32;100.00
14041;BME280;7095;51.388;6.196;2023-08-08T08:36:33;59866.88;;;-145.32;100.00
14041;BME280;7095;51.388;6.196;2023-08-08T08:39:03;59424.72;;;-145.32;100.00
14041;BME280;7095;51.388;6.196;2023-08-08T08:41:35;58090.66;;;-145.32;100.00
14041;BME280;7095;51.388;6.196;2023-08-08T08:44:05;58510.72;;;-145.32;100.00
14041;BME280;7095;51.388;6.196;2023-08-08T08:46:35;58186.22;;;-145.32;100.00
14041;BME280;7095;51.388;6.196;2023-08-08T08:49:06;58094.63;;;-145.32;100.00
14041;BME280;7095;51.388;6.196;2023-08-08T08:51:36;57441.72;;;-145.32;100.00
14041;BME280;7095;51.388;6.196;2023-08-08T08:54:05;57736.31;;;-145.32;100.00
14041;BME280;7095;51.388;6.196;2023-08-08T08:56:34;57724.38;;;-145.32;100.00
14041;BME280;7095;51.388;6.196;2023-08-08T08:59:03;57549.22;;;-145.32;100.00
14041;BME280;7095;51.388;6.196;2023-08-08T09:01:32;57003.88;;;-145.32;100.00
14041;BME280;7095;51.388;6.196;2023-08-08T09:04:03;56874.53;;;-145.32;100.00
14041;BME280;7095;51.388;6.196;2023-08-08T09:06:34;56974.03;;;-145.32;100.00
14041;BME280;7095;51.388;6.196;2023-08-08T09:09:05;57415.84;;;-145.32;100.00
14041;BME280;7095;51.388;6.196;2023-08-08T09:11:44;56983.97;;;-145.32;100.00
14041;BME280;7095;51.388;6.196;2023-08-08T09:14:17;57167.06;;;-145.32;100.00
14041;BME280;7095;51.388;6.196;2023-08-08T09:16:46;56699.41;;;-145.32;100.00
14041;BME280;7095;51.388;6.196;2023-08-08T09:19:17;56180.06;;;-145.32;100.00
14041;BME280;7095;51.388;6.196;2023-08-08T09:21:46;55943.31;;;-145.32;100.00
14041;BME280;7095;51.388;6.196;2023-08-08T09:24:15;55694.63;;;-145.32;100.00
14041;BME280;7095;51.388;6.196;2023-08-08T09:26:44;55851.78;;;-145.32;100.00
14041;BME280;7095;51.388;6.196;2023-08-08T09:29:14;55714.53;;;-145.32;100.00
14041;BME280;7095;51.388;6.196;2023-08-08T09:31:43;55563.34;;;-145.32;100.00
14041;BME280;7095;51.388;6.196;2023-08-08T09:34:12;55607.09;;;-145.32;100.00
14041;BME280;7095;51.388;6.196;2023-08-08T09:36:44;55424.09;;;-145.32;100.00
14041;BME280;7095;51.388;6.196;2023-08-08T09:39:12;55141.63;;;-145.32;100.00
14041;BME280;7095;51.388;6.196;2023-08-08T09:41:41;54906.94;;;-145.32;100.00
14041;BME280;7095;51.388;6.196;2023-08-08T09:44:10;54537.03;;;-145.32;100.00
14041;BME280;7095;51.388;6.196;2023-08-08T09:46:39;54527.09;;;-145.32;100.00
14041;BME280;7095;51.388;6.196;2023-08-08T09:49:08;54477.38;;;-145.32;100.00
14041;BME280;7095;51.388;6.196;2023-08-08T09:51:38;54453.50;;;-145.32;100.00
14041;BME280;7095;51.388;6.196;2023-08-08T09:54:10;54437.59;;;-145.32;100.00
14041;BME280;7095;51.388;6.196;2023-08-08T09:56:39;54485.31;;;-145.32;100.00
14041;BME280;7095;51.388;6.196;2023-08-08T09:59:09;54457.47;;;-145.32;100.00
14041;BME280;7095;51.388;6.196;2023-08-08T10:01:39;54439.59;;;-145.32;100.00
14041;BME280;7095;51.388;6.196;2023-08-08T10:04:11;54489.31;;;-145.32;100.00
14041;BME280;7095;51.388;6.196;2023-08-08T10:06:40;54495.28;;;-145.32;100.00
14041;BME280;7095;51.388;6.196;2023-08-08T10:09:10;54348.13;;;-145.32;100.00
14041;BME280;7095;51.388;6.196;2023-08-08T10:11:41;54324.25;;;-145.32;100.00
14041;BME280;7095;51.388;6.196;2023-08-08T10:14:11;54246.69;;;-145.32;100.00
14041;BME280;7095;51.388;6.196;2023-08-08T10:16:42;54171.13;;;-145.32;100.00
14041;BME280;7095;51.388;6.196;2023-08-08T10:19:13;54117.44;;;-145.32;100.00
14041;BME280;7095;51.388;6.196;2023-08-08T10:21:43;53974.28;;;-145.32;100.00
14041;BME280;7095;51.388;6.196;2023-08-08T10:24:20;53910.66;;;-145.32;100.00
14041;BME280;7095;51.388;6.196;2023-08-08T10:26:52;53986.22;;;-145.32;100.00
14041;BME280;7095;51.388;6.196;2023-08-08T10:29:24;53964.34;;;-145.32;100.00
14041;BME280;7095;51.388;6.196;2023-08-08T10:31:58;53862.94;;;-145.32;100.00
14041;BME280;7095;51.388;6.196;2023-08-08T10:34:36;53914.63;;;-145.32;100.00
14041;BME280;7095;51.388;6.196;2023-08-08T10:37:09;53972.28;;;-145.32;100.00
14041;BME280;7095;51.388;6.196;2023-08-08T10:39:50;53890.78;;;-145.32;100.00
14041;BME280;7095;51.388;6.196;2023-08-08T10:42:20;53956.38;;;-145.32;100.00
14041;BME280;7095;51.388;6.196;2023-08-08T10:44:51;53918.59;;;-145.32;100.00
14041;BME280;7095;51.388;6.196;2023-08-08T10:47:24;53924.56;;;-145.32;100.00
14041;BME280;7095;51.388;6.196;2023-08-08T10:49:58;53894.75;;;-145.32;100.00
14041;BME280;7095;51.388;6.196;2023-08-08T10:52:27;53946.44;;;-145.32;100.00
14041;BME280;7095;51.388;6.196;2023-08-08T10:54:57;53944.47;;;-145.32;100.00
14041;BME280;7095;51.388;6.196;2023-08-08T10:57:27;53872.88;;;-145.32;100.00
14041;BME280;7095;51.388;6.196;2023-08-08T10:59:55;53878.84;;;-145.32;100.00
14041;BME280;7095;51.388;6.196;2023-08-08T11:02:44;53888.78;;;-145.32;100.00
14041;BME280;7095;51.388;6.196;2023-08-08T11:05:14;53866.91;;;-145.32;100.00
14041;BME280;7095;51.388;6.196;2023-08-08T11:07:42;53884.81;;;-145.32;100.00
14041;BME280;7095;51.388;6.196;2023-08-08T11:10:12;53803.28;;;-145.32;100.00
14041;BME280;7095;51.388;6.196;2023-08-08T11:12:41;53787.38;;;-145.32;100.00
14041;BME280;7095;51.388;6.196;2023-08-08T11:15:09;53735.69;;;-145.32;100.00
14041;BME280;7095;51.388;6.196;2023-08-08T11:17:40;53819.19;;;-145.32;100.00
14041;BME280;7095;51.388;6.196;2023-08-08T11:20:10;53789.38;;;-145.32;100.00
14041;BME280;7095;51.388;6.196;2023-08-08T11:22:39;53825.16;;;-145.32;100.00
14041;BME280;7095;51.388;6.196;2023-08-08T11:25:08;53749.59;;;-145.32;100.00
14041;BME280;7095;51.388;6.196;2023-08-08T11:27:38;53769.50;;;-145.32;100.00
14041;BME280;7095;51.388;6.196;2023-08-08T11:30:09;53693.94;;;-145.32;100.00
14041;BME280;7095;51.388;6.196;2023-08-08T11:32:38;53646.22;;;-145.32;100.00
14041;BME280;7095;51.388;6.196;2023-08-08T11:35:07;53630.31;;;-145.32;100.00
14041;BME280;7095;51.388;6.196;2023-08-08T11:37:36;53646.22;;;-145.32;100.00
14041;BME280;7095;51.388;6.196;2023-08-08T11:40:06;53636.28;;;-145.32;100.00
14041;BME280;7095;51.388;6.196;2023-08-08T11:42:36;53678.03;;;-145.32;100.00
14041;BME280;7095;51.388;6.196;2023-08-08T11:45:07;53668.09;;;-145.32;100.00
14041;BME280;7095;51.388;6.196;2023-08-08T11:47:37;53662.13;;;-145.32;100.00
14041;BME280;7095;51.388;6.196;2023-08-08T11:50:08;53689.97;;;-145.32;100.00
14041;BME280;7095;51.388;6.196;2023-08-08T11:52:40;53715.81;;;-145.32;100.00
14041;BME280;7095;51.388;6.196;2023-08-08T11:55:09;53761.53;;;-145.32;100.00
14041;BME280;7095;51.388;6.196;2023-08-08T11:57:39;53729.72;;;-145.32;100.00
14041;BME280;7095;51.388;6.196;2023-08-08T12:00:13;53775.47;;;-145.32;100.00
14041;BME280;7095;51.388;6.196;2023-08-08T12:02:43;53741.66;;;-145.32;100.00
14041;BME280;7095;51.388;6.196;2023-08-08T12:05:14;53749.59;;;-145.32;100.00
14041;BME280;7095;51.388;6.196;2023-08-08T12:07:44;53715.81;;;-145.32;100.00
14041;BME280;7095;51.388;6.196;2023-08-08T12:10:14;53733.69;;;-145.32;100.00
14041;BME280;7095;51.388;6.196;2023-08-08T12:12:45;53731.72;;;-145.32;100.00
14041;BME280;7095;51.388;6.196;2023-08-08T12:15:15;53757.56;;;-145.32;100.00
14041;BME280;7095;51.388;6.196;2023-08-08T12:17:43;53707.84;;;-145.32;100.00
14041;BME280;7095;51.388;6.196;2023-08-08T12:20:14;53779.44;;;-145.32;100.00
14041;BME280;7095;51.388;6.196;2023-08-08T12:22:43;53717.78;;;-145.32;100.00
14041;BME280;7095;51.388;6.196;2023-08-08T12:25:12;53717.78;;;-145.32;100.00
14041;BME280;7095;51.388;6.196;2023-08-08T12:27:41;53658.16;;;-145.32;100.00
14041;BME280;7095;51.388;6.196;2023-08-08T12:30:09;53598.50;;;-145.32;100.00
14041;BME280;7095;51.388;6.196;2023-08-08T12:32:39;53520.97;;;-145.32;84.99
14041;BME280;7095;51.388;6.196;2023-08-08T12:35:08;53511.03;;;-145.32;84.43
14041;BME280;7095;51.388;6.196;2023-08-08T12:37:37;53477.22;;;-145.32;76.87
14041;BME280;7095;51.388;6.196;2023-08-08T12:40:06;53443.44;;;-145.32;71.68
14041;BME280;7095;51.388;6.196;2023-08-08T12:42:35;53427.53;;;-145.32;72.65
14041;BME280;7095;51.388;6.196;2023-08-08T12:45:05;53401.69;;;-145.32;67.38
14041;BME280;7095;51.388;6.196;2023-08-08T12:47:33;53409.63;;;-145.32;68.64
14041;BME280;7095;51.388;6.196;2023-08-08T12:50:07;53387.78;;;-145.32;62.88
14041;BME280;7095;51.388;6.196;2023-08-08T12:52:36;53389.75;;;-145.32;63.64